sensor_id;sensor_type;location;lat;lon;timestamp;pressure;altitude;pressure_sealevel;temperature;humidity
34742;BME280;20968;42.696;23.360;2023-07-13T00:00:46;95463.00;;;26.19;49.71
34742;BME280;20968;42.696;23.360;2023-07-13T00:03:11;95468.09;;;26.13;49.93
34742;BME280;20968;42.696;23.360;2023-07-13T00:05:39;95463.22;;;26.14;50.65
34742;BME280;20968;42.696;23.360;2023-07-13T00:08:04;95456.66;;;26.11;51.34
34742;BME280;20968;42.696;23.360;2023-07-13T00:10:30;95456.09;;;26.05;50.88
34742;BME280;20968;42.696;23.360;2023-07-13T00:12:55;95475.66;;;26.11;51.16
34742;BME280;20968;42.696;23.360;2023-07-13T00:15:25;95463.09;;;26.04;52.21
34742;BME280;20968;42.696;23.360;2023-07-13T00:17:53;95463.66;;;26.03;51.93
34742;BME280;20968;42.696;23.360;2023-07-13T00:20:22;95463.66;;;26.03;52.58
34742;BME280;20968;42.696;23.360;2023-07-13T00:22:48;95458.22;;;25.97;52.47
34742;BME280;20968;42.696;23.360;2023-07-13T00:25:15;95450.50;;;25.98;52.57
34742;BME280;20968;42.696;23.360;2023-07-13T00:27:42;95449.59;;;25.96;52.71
34742;BME280;20968;42.696;23.360;2023-07-13T00:30:08;95449.75;;;25.97;53.35
34742;BME280;20968;42.696;23.360;2023-07-13T00:32:34;95451.25;;;25.98;52.99
34742;BME280;20968;42.696;23.360;2023-07-13T00:35:00;95440.53;;;25.97;53.33
34742;BME280;20968;42.696;23.360;2023-07-13T00:37:26;95442.44;;;25.95;53.42
34742;BME280;20968;42.696;23.360;2023-07-13T00:39:51;95438.13;;;25.94;53.30
34742;BME280;20968;42.696;23.360;2023-07-13T00:42:17;95444.75;;;25.89;52.69
34742;BME280;20968;42.696;23.360;2023-07-13T00:47:39;95447.19;;;25.85;53.41
34742;BME280;20968;42.696;23.360;2023-07-13T00:50:09;95450.59;;;25.83;53.62
34742;BME280;20968;42.696;23.360;2023-07-13T00:52:37;95444.94;;;25.83;54.25
34742;BME280;20968;42.696;23.360;2023-07-13T00:55:04;95442.53;;;25.80;55.12
34742;BME280;20968;42.696;23.360;2023-07-13T00:57:30;95447.78;;;25.76;55.07
34742;BME280;20968;42.696;23.360;2023-07-13T00:59:59;95443.09;;;25.71;55.87
34742;BME280;20968;42.696;23.360;2023-07-13T01:02:27;95438.03;;;25.69;55.88
34742;BME280;20968;42.696;23.360;2023-07-13T01:04:53;95429.97;;;25.58;56.94
34742;BME280;20968;42.696;23.360;2023-07-13T01:07:19;95431.94;;;25.33;57.30
34742;BME280;20968;42.696;23.360;2023-07-13T01:09:44;95439.09;;;25.34;57.70
34742;BME280;20968;42.696;23.360;2023-07-13T01:12:10;95430.44;;;25.40;57.32
34742;BME280;20968;42.696;23.360;2023-07-13T01:14:37;95441.72;;;25.40;57.40
34742;BME280;20968;42.696;23.360;2023-07-13T01:17:04;95442.84;;;25.44;57.89
34742;BME280;20968;42.696;23.360;2023-07-13T01:19:39;95436.44;;;25.44;57.89
34742;BME280;20968;42.696;23.360;2023-07-13T01:22:12;95437.94;;;25.45;58.28
34742;BME280;20968;42.696;23.360;2023-07-13T01:24:40;95427.25;;;25.36;58.43
34742;BME280;20968;42.696;23.360;2023-07-13T01:27:07;95435.16;;;25.37;58.23
34742;BME280;20968;42.696;23.360;2023-07-13T01:29:33;95438.16;;;25.39;58.69
34742;BME280;20968;42.696;23.360;2023-07-13T01:31:59;95428.19;;;25.38;58.60
34742;BME280;20968;42.696;23.360;2023-07-13T01:34:27;95433.06;;;25.38;58.25
34742;BME280;20968;42.696;23.360;2023-07-13T01:36:53;95438.72;;;25.38;58.64
34742;BME280;20968;42.696;23.360;2023-07-13T01:39:22;95432.53;;;25.39;58.92
34742;BME280;20968;42.696;23.360;2023-07-13T01:41:47;95438.72;;;25.38;59.07
34742;BME280;20968;42.696;23.360;2023-07-13T01:44:13;95429.13;;;25.33;58.85
34742;BME280;20968;42.696;23.360;2023-07-13T01:46:39;95434.56;;;25.39;59.18
34742;BME280;20968;42.696;23.360;2023-07-13T01:49:04;95432.19;;;25.28;59.16
34742;BME280;20968;42.696;23.360;2023-07-13T01:51:30;95432.34;;;25.30;58.96
34742;BME280;20968;42.696;23.360;2023-07-13T01:53:55;95433.50;;;25.27;58.69
34742;BME280;20968;42.696;23.360;2023-07-13T01:56:21;95423.34;;;25.24;59.08
34742;BME280;20968;42.696;23.360;2023-07-13T01:58:46;95429.75;;;25.24;58.52
34742;BME280;20968;42.696;23.360;2023-07-13T02:01:12;95430.88;;;25.21;58.59
34742;BME280;20968;42.696;23.360;2023-07-13T02:03:37;95437.09;;;25.20;58.63
34742;BME280;20968;42.696;23.360;2023-07-13T02:06:03;95438.22;;;25.17;58.71
34742;BME280;20968;42.696;23.360;2023-07-13T02:08:28;95443.66;;;25.15;59.00
34742;BME280;20968;42.696;23.360;2023-07-13T02:10:54;95441.22;;;25.12;59.09
34742;BME280;20968;42.696;23.360;2023-07-13T02:13:19;95446.31;;;25.13;59.26
34742;BME280;20968;42.696;23.360;2023-07-13T02:15:44;95440.84;;;25.08;59.45
34742;BME280;20968;42.696;23.360;2023-07-13T02:18:10;95436.91;;;25.03;59.48
34742;BME280;20968;42.696;23.360;2023-07-13T02:20:35;95432.41;;;25.00;60.22
34742;BME280;20968;42.696;23.360;2023-07-13T02:23:01;95438.22;;;25.02;60.91
34742;BME280;20968;42.696;23.360;2023-07-13T02:25:26;95439.94;;;24.90;61.76
34742;BME280;20968;42.696;23.360;2023-07-13T02:27:52;95446.31;;;24.83;61.71
34742;BME280;20968;42.696;23.360;2023-07-13T02:30:18;95451.97;;;24.83;61.86
34742;BME280;20968;42.696;23.360;2023-07-13T02:32:43;95452.72;;;24.84;62.06
34742;BME280;20968;42.696;23.360;2023-07-13T02:35:09;95449.72;;;24.89;62.13
34742;BME280;20968;42.696;23.360;2023-07-13T02:37:35;95452.91;;;24.86;61.89
34742;BME280;20968;42.696;23.360;2023-07-13T02:40:01;95452.34;;;24.87;61.96
34742;BME280;20968;42.696;23.360;2023-07-13T02:42:29;95456.13;;;24.82;62.12
34742;BME280;20968;42.696;23.360;2023-07-13T02:44:54;95455.34;;;24.82;62.21
34742;BME280;20968;42.696;23.360;2023-07-13T02:47:20;95453.09;;;24.80;62.25
34742;BME280;20968;42.696;23.360;2023-07-13T02:49:45;95457.25;;;24.79;62.29
34742;BME280;20968;42.696;23.360;2023-07-13T02:52:11;95448.22;;;24.81;62.14
34742;BME280;20968;42.696;23.360;2023-07-13T02:54:36;95448.03;;;24.71;62.19
34742;BME280;20968;42.696;23.360;2023-07-13T02:57:02;95457.22;;;24.72;62.18
34742;BME280;20968;42.696;23.360;2023-07-13T02:59:27;95465.88;;;24.81;62.19
34742;BME280;20968;42.696;23.360;2023-07-13T03:01:54;95459.13;;;24.69;63.21
34742;BME280;20968;42.696;23.360;2023-07-13T03:04:19;95453.88;;;24.73;63.11
34742;BME280;20968;42.696;23.360;2023-07-13T03:06:45;95467.41;;;24.82;62.25
34742;BME280;20968;42.696;23.360;2023-07-13T03:09:11;95459.47;;;24.81;62.13
34742;BME280;20968;42.696;23.360;2023-07-13T03:11:37;95459.31;;;24.79;62.22
34742;BME280;20968;42.696;23.360;2023-07-13T03:14:03;95468.91;;;24.61;62.18
34742;BME280;20968;42.696;23.360;2023-07-13T03:16:28;95473.03;;;24.67;62.17
34742;BME280;20968;42.696;23.360;2023-07-13T03:18:54;95473.03;;;24.67;62.61
34742;BME280;20968;42.696;23.360;2023-07-13T03:21:20;95466.44;;;24.65;63.11
34742;BME280;20968;42.696;23.360;2023-07-13T03:23:46;95463.63;;;24.65;63.50
34742;BME280;20968;42.696;23.360;2023-07-13T03:26:14;95467.38;;;24.75;63.44
34742;BME280;20968;42.696;23.360;2023-07-13T03:28:41;95467.41;;;24.82;63.29
34742;BME280;20968;42.696;23.360;2023-07-13T03:31:10;95471.13;;;24.92;62.61
34742;BME280;20968;42.696;23.360;2023-07-13T03:33:36;95473.00;;;25.05;60.85
34742;BME280;20968;42.696;23.360;2023-07-13T03:36:03;95479.94;;;25.04;61.08
34742;BME280;20968;42.696;23.360;2023-07-13T03:38:29;95477.50;;;25.00;61.25
34742;BME280;20968;42.696;23.360;2023-07-13T03:40:55;95481.63;;;24.99;61.43
34742;BME280;20968;42.696;23.360;2023-07-13T03:43:20;95476.56;;;24.98;61.37
34742;BME280;20968;42.696;23.360;2023-07-13T03:45:46;95472.63;;;24.93;61.31
34742;BME280;20968;42.696;23.360;2023-07-13T03:48:12;95473.38;;;24.86;61.13
34742;BME280;20968;42.696;23.360;2023-07-13T03:50:37;95466.25;;;24.85;61.36
34742;BME280;20968;42.696;23.360;2023-07-13T03:53:04;95473.41;;;24.71;61.61
34742;BME280;20968;42.696;23.360;2023-07-13T03:55:29;95475.28;;;24.61;62.09
34742;BME280;20968;42.696;23.360;2023-07-13T03:58:01;95470.22;;;24.60;62.25
34742;BME280;20968;42.696;23.360;2023-07-13T04:00:26;95460.81;;;24.57;62.39
34742;BME280;20968;42.696;23.360;2023-07-13T04:02:52;95472.44;;;24.61;62.25
34742;BME280;20968;42.696;23.360;2023-07-13T04:05:17;95476.78;;;24.62;62.32
34742;BME280;20968;42.696;23.360;2023-07-13T04:07:43;95469.09;;;24.63;62.15
34742;BME280;20968;42.696;23.360;2023-07-13T04:10:09;95466.66;;;24.59;61.99
34742;BME280;20968;42.696;23.360;2023-07-13T04:12:34;95470.22;;;24.67;62.14
34742;BME280;20968;42.696;23.360;2023-07-13T04:15:00;95467.75;;;24.56;63.07
34742;BME280;20968;42.696;23.360;2023-07-13T04:17:25;95471.91;;;24.63;62.66
34742;BME280;20968;42.696;23.360;2023-07-13T04:19:51;95478.69;;;24.67;62.24
34742;BME280;20968;42.696;23.360;2023-07-13T04:22:16;95481.28;;;24.65;62.98
34742;BME280;20968;42.696;23.360;2023-07-13T04:24:42;95484.69;;;24.64;62.80
34742;BME280;20968;42.696;23.360;2023-07-13T04:27:07;95484.31;;;24.67;62.35
34742;BME280;20968;42.696;23.360;2023-07-13T04:29:33;95486.16;;;24.65;63.07
34742;BME280;20968;42.696;23.360;2023-07-13T04:31:58;95481.66;;;24.69;62.63
34742;BME280;20968;42.696;23.360;2023-07-13T04:34:24;95488.44;;;24.74;62.08
34742;BME280;20968;42.696;23.360;2023-07-13T04:36:50;95489.72;;;24.88;61.38
34742;BME280;20968;42.696;23.360;2023-07-13T04:39:17;95487.88;;;24.90;62.21
34742;BME280;20968;42.696;23.360;2023-07-13T04:41:43;95496.69;;;24.94;62.05
34742;BME280;20968;42.696;23.360;2023-07-13T04:44:08;95492.19;;;24.99;61.73
34742;BME280;20968;42.696;23.360;2023-07-13T04:46:33;95491.22;;;24.89;62.36
34742;BME280;20968;42.696;23.360;2023-07-13T04:48:59;95484.13;;;24.80;62.17
34742;BME280;20968;42.696;23.360;2023-07-13T04:51:26;95496.13;;;24.96;62.31
34742;BME280;20968;42.696;23.360;2023-07-13T04:53:52;95512.06;;;25.08;62.15
34742;BME280;20968;42.696;23.360;2023-07-13T04:56:17;95493.88;;;25.09;61.89
34742;BME280;20968;42.696;23.360;2023-07-13T04:58:44;95513.78;;;25.26;61.45
34742;BME280;20968;42.696;23.360;2023-07-13T05:01:10;95496.44;;;25.37;60.25
34742;BME280;20968;42.696;23.360;2023-07-13T05:03:36;95514.91;;;25.30;59.60
34742;BME280;20968;42.696;23.360;2023-07-13T05:06:04;95508.72;;;25.17;61.00
34742;BME280;20968;42.696;23.360;2023-07-13T05:08:30;95512.63;;;25.29;60.16
34742;BME280;20968;42.696;23.360;2023-07-13T05:10:56;95505.13;;;25.24;59.52
34742;BME280;20968;42.696;23.360;2023-07-13T05:13:22;95506.63;;;25.17;60.28
34742;BME280;20968;42.696;23.360;2023-07-13T05:15:56;95518.47;;;25.31;60.93
34742;BME280;20968;42.696;23.360;2023-07-13T05:18:22;95520.53;;;25.38;60.96
34742;BME280;20968;42.696;23.360;2023-07-13T05:20:57;95520.31;;;25.51;59.94
34742;BME280;20968;42.696;23.360;2023-07-13T05:23:22;95516.75;;;25.43;59.54
34742;BME280;20968;42.696;23.360;2023-07-13T05:25:48;95510.34;;;25.42;60.10
34742;BME280;20968;42.696;23.360;2023-07-13T05:28:13;95508.84;;;25.49;59.81
34742;BME280;20968;42.696;23.360;2023-07-13T05:30:38;95521.41;;;25.55;59.55
34742;BME280;20968;42.696;23.360;2023-07-13T05:33:04;95516.47;;;25.71;58.50
34742;BME280;20968;42.696;23.360;2023-07-13T05:35:29;95510.66;;;25.76;57.69
34742;BME280;20968;42.696;23.360;2023-07-13T05:37:55;95518.75;;;25.80;57.70
34742;BME280;20968;42.696;23.360;2023-07-13T05:40:20;95515.75;;;25.70;57.51
34742;BME280;20968;42.696;23.360;2023-07-13T05:42:45;95527.94;;;25.88;57.86
34742;BME280;20968;42.696;23.360;2023-07-13T05:45:11;95525.66;;;25.94;57.51
34742;BME280;20968;42.696;23.360;2023-07-13T05:47:36;95518.94;;;26.13;57.64
34742;BME280;20968;42.696;23.360;2023-07-13T05:50:02;95526.91;;;26.07;56.50
34742;BME280;20968;42.696;23.360;2023-07-13T05:52:27;95527.41;;;26.21;55.52
34742;BME280;20968;42.696;23.360;2023-07-13T05:54:53;95519.66;;;26.21;54.75
34742;BME280;20968;42.696;23.360;2023-07-13T05:57:18;95523.38;;;26.31;55.05
34742;BME280;20968;42.696;23.360;2023-07-13T05:59:44;95517.66;;;26.46;55.12
34742;BME280;20968;42.696;23.360;2023-07-13T06:02:10;95514.41;;;26.57;54.91
34742;BME280;20968;42.696;23.360;2023-07-13T06:04:36;95504.06;;;26.52;57.44
34742;BME280;20968;42.696;23.360;2023-07-13T06:07:01;95508.47;;;26.70;58.19
34742;BME280;20968;42.696;23.360;2023-07-13T06:09:26;95511.50;;;26.89;57.59
34742;BME280;20968;42.696;23.360;2023-07-13T06:11:52;95509.44;;;26.89;58.11
34742;BME280;20968;42.696;23.360;2023-07-13T06:14:17;95506.94;;;26.93;57.95
34742;BME280;20968;42.696;23.360;2023-07-13T06:16:43;95521.25;;;27.20;57.47
34742;BME280;20968;42.696;23.360;2023-07-13T06:19:08;95518.00;;;27.23;57.82
34742;BME280;20968;42.696;23.360;2023-07-13T06:21:33;95520.38;;;27.34;57.44
34742;BME280;20968;42.696;23.360;2023-07-13T06:23:59;95513.81;;;27.49;55.69
34742;BME280;20968;42.696;23.360;2023-07-13T06:26:24;95528.72;;;27.49;56.00
34742;BME280;20968;42.696;23.360;2023-07-13T06:28:50;95524.41;;;27.65;55.42
34742;BME280;20968;42.696;23.360;2023-07-13T06:31:15;95518.00;;;27.81;54.84
34742;BME280;20968;42.696;23.360;2023-07-13T06:33:41;95518.00;;;27.81;53.35
34742;BME280;20968;42.696;23.360;2023-07-13T06:36:08;95519.66;;;28.01;53.65
34742;BME280;20968;42.696;23.360;2023-07-13T06:38:34;95517.97;;;28.15;51.06
34742;BME280;20968;42.696;23.360;2023-07-13T06:41:00;95522.63;;;28.20;50.06
34742;BME280;20968;42.696;23.360;2023-07-13T06:43:25;95513.19;;;28.18;49.67
34742;BME280;20968;42.696;23.360;2023-07-13T06:45:51;95516.97;;;28.20;50.17
34742;BME280;20968;42.696;23.360;2023-07-13T06:48:19;95516.13;;;28.27;50.44
34742;BME280;20968;42.696;23.360;2023-07-13T06:50:45;95502.06;;;28.46;50.68
34742;BME280;20968;42.696;23.360;2023-07-13T06:53:12;95508.75;;;28.41;49.61
34742;BME280;20968;42.696;23.360;2023-07-13T06:55:38;95513.41;;;28.46;49.87
34742;BME280;20968;42.696;23.360;2023-07-13T06:58:04;95518.22;;;28.53;48.48
34742;BME280;20968;42.696;23.360;2023-07-13T07:00:29;95510.81;;;28.67;50.64
34742;BME280;20968;42.696;23.360;2023-07-13T07:02:55;95514.13;;;28.73;48.93
34742;BME280;20968;42.696;23.360;2023-07-13T07:05:20;95517.28;;;28.77;48.64
34742;BME280;20968;42.696;23.360;2023-07-13T07:07:50;95518.09;;;28.87;48.78
34742;BME280;20968;42.696;23.360;2023-07-13T07:10:16;95514.13;;;28.99;48.44
34742;BME280;20968;42.696;23.360;2023-07-13T07:12:41;95511.91;;;29.17;47.26
34742;BME280;20968;42.696;23.360;2023-07-13T07:15:07;95512.59;;;29.34;46.04
34742;BME280;20968;42.696;23.360;2023-07-13T07:17:33;95505.00;;;29.36;46.97
34742;BME280;20968;42.696;23.360;2023-07-13T07:19:58;95500.50;;;29.43;47.87
34742;BME280;20968;42.696;23.360;2023-07-13T07:22:23;95508.44;;;29.63;47.69
34742;BME280;20968;42.696;23.360;2023-07-13T07:24:52;95504.72;;;29.61;47.34
34742;BME280;20968;42.696;23.360;2023-07-13T07:27:18;95507.25;;;29.76;46.61
34742;BME280;20968;42.696;23.360;2023-07-13T07:29:43;95508.03;;;29.86;47.40
34742;BME280;20968;42.696;23.360;2023-07-13T07:32:08;95506.69;;;29.96;44.89
34742;BME280;20968;42.696;23.360;2023-07-13T07:34:34;95497.56;;;30.07;46.61
34742;BME280;20968;42.696;23.360;2023-07-13T07:37:00;95498.00;;;30.22;46.25
34742;BME280;20968;42.696;23.360;2023-07-13T07:39:26;95491.13;;;30.25;45.11
34742;BME280;20968;42.696;23.360;2023-07-13T07:41:52;95494.50;;;30.43;45.27
34742;BME280;20968;42.696;23.360;2023-07-13T07:44:17;95485.09;;;30.50;45.37
34742;BME280;20968;42.696;23.360;2023-07-13T07:46:43;95487.72;;;30.67;45.01
34742;BME280;20968;42.696;23.360;2023-07-13T07:49:08;95491.00;;;30.73;44.82
34742;BME280;20968;42.696;23.360;2023-07-13T07:51:34;95486.66;;;30.72;45.08
34742;BME280;20968;42.696;23.360;2023-07-13T07:53:59;95485.31;;;30.73;45.98
34742;BME280;20968;42.696;23.360;2023-07-13T07:56:25;95475.53;;;30.85;46.45
34742;BME280;20968;42.696;23.360;2023-07-13T07:58:50;95477.72;;;30.96;45.02
34742;BME280;20968;42.696;23.360;2023-07-13T08:01:16;95477.50;;;30.83;43.82
34742;BME280;20968;42.696;23.360;2023-07-13T08:03:41;95470.41;;;30.83;44.49
34742;BME280;20968;42.696;23.360;2023-07-13T08:06:06;95464.34;;;31.08;43.86
34742;BME280;20968;42.696;23.360;2023-07-13T08:08:32;95459.28;;;31.27;45.89
34742;BME280;20968;42.696;23.360;2023-07-13T08:10:57;95458.41;;;31.46;43.92
34742;BME280;20968;42.696;23.360;2023-07-13T08:13:23;95462.06;;;31.37;43.68
34742;BME280;20968;42.696;23.360;2023-07-13T08:15:48;95455.22;;;31.51;41.36
34742;BME280;20968;42.696;23.360;2023-07-13T08:18:15;95458.13;;;31.42;42.47
34742;BME280;20968;42.696;23.360;2023-07-13T08:20:40;95456.69;;;31.52;44.11
34742;BME280;20968;42.696;23.360;2023-07-13T08:23:07;95455.25;;;31.72;44.47
34742;BME280;20968;42.696;23.360;2023-07-13T08:25:34;95453.09;;;31.93;43.79
34742;BME280;20968;42.696;23.360;2023-07-13T08:28:00;95448.81;;;32.04;42.71
34742;BME280;20968;42.696;23.360;2023-07-13T08:30:25;95448.81;;;32.04;42.83
34742;BME280;20968;42.696;23.360;2023-07-13T08:32:51;95445.69;;;32.00;42.45
34742;BME280;20968;42.696;23.360;2023-07-13T08:35:16;95445.75;;;32.11;43.28
34742;BME280;20968;42.696;23.360;2023-07-13T08:37:42;95434.75;;;32.29;41.46
34742;BME280;20968;42.696;23.360;2023-07-13T08:40:09;95431.81;;;32.38;42.95
34742;BME280;20968;42.696;23.360;2023-07-13T08:45:22;95439.63;;;32.49;43.46
34742;BME280;20968;42.696;23.360;2023-07-13T08:48:20;95434.09;;;32.62;41.64
34742;BME280;20968;42.696;23.360;2023-07-13T08:53:21;95440.56;;;32.74;39.73
34742;BME280;20968;42.696;23.360;2023-07-13T08:55:54;95441.69;;;32.69;39.81
34742;BME280;20968;42.696;23.360;2023-07-13T08:58:23;95440.56;;;32.86;39.76
34742;BME280;20968;42.696;23.360;2023-07-13T09:01:12;95447.75;;;32.98;40.71
34742;BME280;20968;42.696;23.360;2023-07-13T09:03:49;95453.63;;;33.12;40.03
34742;BME280;20968;42.696;23.360;2023-07-13T09:06:20;95464.78;;;33.19;40.82
34742;BME280;20968;42.696;23.360;2023-07-13T09:09:04;95464.41;;;33.36;40.21
34742;BME280;20968;42.696;23.360;2023-07-13T09:12:40;95468.38;;;33.31;39.38
34742;BME280;20968;42.696;23.360;2023-07-13T09:14:47;95471.59;;;33.48;38.29
34742;BME280;20968;42.696;23.360;2023-07-13T09:17:18;95468.59;;;33.46;39.08
34742;BME280;20968;42.696;23.360;2023-07-13T09:19:47;95463.19;;;33.28;40.08
34742;BME280;20968;42.696;23.360;2023-07-13T09:22:16;95461.88;;;33.53;40.74
34742;BME280;20968;42.696;23.360;2023-07-13T09:27:21;95460.22;;;33.85;39.22
34742;BME280;20968;42.696;23.360;2023-07-13T09:30:21;95457.91;;;34.06;40.17
34742;BME280;20968;42.696;23.360;2023-07-13T09:32:52;95455.75;;;34.18;39.96
34742;BME280;20968;42.696;23.360;2023-07-13T09:35:26;95460.78;;;34.31;40.31
34742;BME280;20968;42.696;23.360;2023-07-13T09:37:57;95458.56;;;34.29;40.49
34742;BME280;20968;42.696;23.360;2023-07-13T09:41:00;95462.31;;;34.45;40.16
34742;BME280;20968;42.696;23.360;2023-07-13T09:43:27;95454.34;;;34.55;39.21
34742;BME280;20968;42.696;23.360;2023-07-13T09:45:54;95445.44;;;34.63;38.12
34742;BME280;20968;42.696;23.360;2023-07-13T09:48:20;95443.41;;;34.65;37.82
34742;BME280;20968;42.696;23.360;2023-07-13T09:50:46;95435.06;;;34.69;37.00
34742;BME280;20968;42.696;23.360;2023-07-13T09:53:16;95434.88;;;34.92;37.10
34742;BME280;20968;42.696;23.360;2023-07-13T09:55:44;95427.59;;;35.02;36.21
34742;BME280;20968;42.696;23.360;2023-07-13T10:01:00;95432.31;;;34.85;35.90
34742;BME280;20968;42.696;23.360;2023-07-13T10:03:31;95431.81;;;35.01;37.16
34742;BME280;20968;42.696;23.360;2023-07-13T10:06:19;95416.97;;;35.18;34.81
34742;BME280;20968;42.696;23.360;2023-07-13T10:08:47;95419.31;;;35.08;34.65
34742;BME280;20968;42.696;23.360;2023-07-13T10:11:25;95400.41;;;35.17;35.56
34742;BME280;20968;42.696;23.360;2023-07-13T10:14:00;95408.59;;;35.22;34.86
34742;BME280;20968;42.696;23.360;2023-07-13T10:16:33;95397.00;;;35.34;35.87
34742;BME280;20968;42.696;23.360;2023-07-13T10:19:02;95402.22;;;35.51;34.20
34742;BME280;20968;42.696;23.360;2023-07-13T10:21:38;95404.66;;;35.56;33.78
34742;BME280;20968;42.696;23.360;2023-07-13T10:24:14;95406.22;;;35.59;34.06
34742;BME280;20968;42.696;23.360;2023-07-13T10:26:50;95408.06;;;35.53;33.63
34742;BME280;20968;42.696;23.360;2023-07-13T10:29:17;95397.63;;;35.59;32.61
34742;BME280;20968;42.696;23.360;2023-07-13T10:31:44;95394.41;;;35.80;32.64
34742;BME280;20968;42.696;23.360;2023-07-13T10:34:13;95380.50;;;36.03;33.25
34742;BME280;20968;42.696;23.360;2023-07-13T10:36:43;95386.09;;;36.15;32.40
34742;BME280;20968;42.696;23.360;2023-07-13T10:39:16;95381.28;;;36.19;29.58
34742;BME280;20968;42.696;23.360;2023-07-13T10:41:44;95390.28;;;36.27;28.47
34742;BME280;20968;42.696;23.360;2023-07-13T10:44:20;95376.03;;;36.29;27.35
34742;BME280;20968;42.696;23.360;2023-07-13T10:46:47;95377.81;;;36.36;27.12
34742;BME280;20968;42.696;23.360;2023-07-13T10:49:13;95368.28;;;36.47;27.47
34742;BME280;20968;42.696;23.360;2023-07-13T10:51:39;95360.03;;;36.55;27.94
34742;BME280;20968;42.696;23.360;2023-07-13T10:56:42;95356.16;;;36.64;27.13
34742;BME280;20968;42.696;23.360;2023-07-13T10:59:14;95355.50;;;36.81;28.18
34742;BME280;20968;42.696;23.360;2023-07-13T11:04:29;95347.81;;;36.85;26.31
34742;BME280;20968;42.696;23.360;2023-07-13T11:07:11;95345.03;;;36.72;25.52
34742;BME280;20968;42.696;23.360;2023-07-13T11:09:43;95337.72;;;36.84;27.08
34742;BME280;20968;42.696;23.360;2023-07-13T11:22:50;95331.09;;;37.13;26.60
34742;BME280;20968;42.696;23.360;2023-07-13T11:25:28;95330.88;;;37.24;26.53
34742;BME280;20968;42.696;23.360;2023-07-13T11:30:45;95324.78;;;37.49;25.67
34742;BME280;20968;42.696;23.360;2023-07-13T11:36:06;95318.63;;;37.56;26.13
34742;BME280;20968;42.696;23.360;2023-07-13T11:38:36;95315.09;;;37.58;25.90
34742;BME280;20968;42.696;23.360;2023-07-13T11:41:21;95312.78;;;37.54;26.25
34742;BME280;20968;42.696;23.360;2023-07-13T11:43:51;95312.78;;;37.54;26.77
34742;BME280;20968;42.696;23.360;2023-07-13T11:46:27;95309.75;;;37.68;26.29
34742;BME280;20968;42.696;23.360;2023-07-13T11:48:53;95305.25;;;37.63;25.62
34742;BME280;20968;42.696;23.360;2023-07-13T11:51:27;95295.44;;;37.52;26.30
34742;BME280;20968;42.696;23.360;2023-07-13T11:53:55;95298.81;;;37.47;26.16
34742;BME280;20968;42.696;23.360;2023-07-13T11:56:22;95305.97;;;37.46;26.45
34742;BME280;20968;42.696;23.360;2023-07-13T11:58:51;95294.13;;;37.55;26.48
34742;BME280;20968;42.696;23.360;2023-07-13T12:01:25;95288.22;;;37.69;26.99
34742;BME280;20968;42.696;23.360;2023-07-13T12:03:51;95281.97;;;37.74;26.20
34742;BME280;20968;42.696;23.360;2023-07-13T12:06:36;95288.13;;;37.67;27.66
34742;BME280;20968;42.696;23.360;2023-07-13T12:09:11;95276.53;;;37.65;27.31
34742;BME280;20968;42.696;23.360;2023-07-13T12:11:40;95275.22;;;37.68;27.98
34742;BME280;20968;42.696;23.360;2023-07-13T12:14:10;95281.47;;;37.62;27.71
34742;BME280;20968;42.696;23.360;2023-07-13T12:16:37;95270.56;;;37.76;28.06
34742;BME280;20968;42.696;23.360;2023-07-13T12:19:02;95261.25;;;37.95;27.47
34742;BME280;20968;42.696;23.360;2023-07-13T12:21:33;95257.34;;;38.06;25.91
34742;BME280;20968;42.696;23.360;2023-07-13T12:24:00;95257.94;;;38.03;26.40
34742;BME280;20968;42.696;23.360;2023-07-13T12:26:28;95252.69;;;37.97;25.78
34742;BME280;20968;42.696;23.360;2023-07-13T12:28:55;95255.38;;;38.11;26.59
34742;BME280;20968;42.696;23.360;2023-07-13T12:31:33;95253.31;;;38.13;25.71
34742;BME280;20968;42.696;23.360;2023-07-13T12:34:02;95249.56;;;37.91;25.58
34742;BME280;20968;42.696;23.360;2023-07-13T12:36:33;95237.16;;;37.87;25.63
34742;BME280;20968;42.696;23.360;2023-07-13T12:39:14;95240.28;;;37.75;25.94
34742;BME280;20968;42.696;23.360;2023-07-13T12:41:40;95235.44;;;37.62;26.26
34742;BME280;20968;42.696;23.360;2023-07-13T12:44:15;95231.66;;;37.58;25.65
34742;BME280;20968;42.696;23.360;2023-07-13T12:46:58;95227.22;;;37.72;26.87
34742;BME280;20968;42.696;23.360;2023-07-13T12:49:27;95220.41;;;37.81;26.55
34742;BME280;20968;42.696;23.360;2023-07-13T12:51:59;95227.72;;;37.84;25.81
34742;BME280;20968;42.696;23.360;2023-07-13T12:54:26;95228.25;;;37.98;26.32
34742;BME280;20968;42.696;23.360;2023-07-13T12:56:53;95215.66;;;38.07;26.37
34742;BME280;20968;42.696;23.360;2023-07-13T12:59:22;95210.69;;;38.10;26.52
34742;BME280;20968;42.696;23.360;2023-07-13T13:01:49;95213.44;;;38.06;25.90
34742;BME280;20968;42.696;23.360;2023-07-13T13:04:15;95205.16;;;37.96;25.42
34742;BME280;20968;42.696;23.360;2023-07-13T13:06:41;95210.25;;;37.98;25.76
34742;BME280;20968;42.696;23.360;2023-07-13T13:09:13;95199.94;;;38.10;26.06
34742;BME280;20968;42.696;23.360;2023-07-13T13:11:39;95207.50;;;38.19;26.20
34742;BME280;20968;42.696;23.360;2023-07-13T13:14:08;95194.56;;;38.20;25.09
34742;BME280;20968;42.696;23.360;2023-07-13T13:16:35;95207.44;;;38.36;24.92
34742;BME280;20968;42.696;23.360;2023-07-13T13:19:16;95194.44;;;38.35;24.34
34742;BME280;20968;42.696;23.360;2023-07-13T13:21:43;95189.28;;;38.32;24.62
34742;BME280;20968;42.696;23.360;2023-07-13T13:24:19;95194.72;;;38.24;25.33
34742;BME280;20968;42.696;23.360;2023-07-13T13:26:46;95187.50;;;38.23;23.90
34742;BME280;20968;42.696;23.360;2023-07-13T13:29:16;95195.16;;;38.36;25.09